createdAt,value
2023-06-25T00:01:19.854Z,70.18
2023-06-25T00:03:46.860Z,70.41
2023-06-25T00:06:13.951Z,70.20
2023-06-25T00:08:40.902Z,70.50
2023-06-25T00:11:07.915Z,70.64
2023-06-25T00:13:34.932Z,71.18
2023-06-25T00:16:04.100Z,71.22
2023-06-25T00:18:31.050Z,71.40
2023-06-25T00:20:58.142Z,71.08
2023-06-25T00:23:25.066Z,70.97
2023-06-25T00:25:53.090Z,71.43
2023-06-25T00:28:20.180Z,71.52
2023-06-25T00:30:47.454Z,71.54
2023-06-25T00:33:14.773Z,71.60
2023-06-25T00:35:50.932Z,71.83
2023-06-25T00:38:21.524Z,71.79
2023-06-25T00:40:48.566Z,71.60
2023-06-25T00:43:17.415Z,72.00
2023-06-25T00:45:44.817Z,71.90
2023-06-25T00:48:12.362Z,72.19
2023-06-25T00:50:39.524Z,71.83
2023-06-25T00:53:10.103Z,72.10
2023-06-25T00:55:38.397Z,71.93
2023-06-25T00:58:06.320Z,71.73
2023-06-25T01:00:35.343Z,71.94
2023-06-25T01:03:13.889Z,71.93
2023-06-25T01:05:45.085Z,72.52
2023-06-25T01:08:12.527Z,72.53
2023-06-25T01:10:40.224Z,72.52
2023-06-25T01:13:08.644Z,72.52
2023-06-25T01:15:36.398Z,72.35
2023-06-25T01:18:04.187Z,72.55
2023-06-25T01:20:31.171Z,72.64
2023-06-25T01:22:58.912Z,72.71
2023-06-25T01:25:26.318Z,72.23
2023-06-25T01:27:53.356Z,71.52
2023-06-25T01:30:21.730Z,71.59
2023-06-25T01:32:48.825Z,71.67
2023-06-25T01:35:16.702Z,72.15
2023-06-25T01:37:43.758Z,72.32
2023-06-25T01:40:11.711Z,72.06
2023-06-25T01:42:38.690Z,72.40
2023-06-25T01:45:06.859Z,72.10
2023-06-25T01:47:34.260Z,71.88
2023-06-25T01:50:01.414Z,71.89
2023-06-25T01:52:28.485Z,71.90
2023-06-25T01:54:55.330Z,71.54
2023-06-25T01:57:23.020Z,71.52
2023-06-25T01:59:50.185Z,71.61
2023-06-25T02:02:20.970Z,71.50
2023-06-25T02:04:48.219Z,71.43
2023-06-25T02:07:15.228Z,71.25
2023-06-25T02:09:43.080Z,71.23
2023-06-25T02:12:10.272Z,70.65
2023-06-25T02:14:38.025Z,70.22
2023-06-25T02:17:05.352Z,70.09
2023-06-25T02:19:32.642Z,69.89
2023-06-25T02:21:59.610Z,69.67
2023-06-25T02:24:26.766Z,69.87
2023-06-25T02:26:53.781Z,69.77
2023-06-25T02:29:20.754Z,69.62
2023-06-25T02:31:47.762Z,69.76
2023-06-25T02:34:17.667Z,69.46
2023-06-25T02:36:44.902Z,69.85
2023-06-25T02:39:11.998Z,70.19
2023-06-25T02:41:39.196Z,71.06
2023-06-25T02:44:06.182Z,71.24
2023-06-25T02:46:33.192Z,71.29
2023-06-25T02:49:00.250Z,71.11
2023-06-25T02:51:28.017Z,70.45
2023-06-25T02:53:55.160Z,70.64
2023-06-25T02:56:22.159Z,70.70
2023-06-25T02:58:49.101Z,70.93
2023-06-25T03:01:16.048Z,71.35
2023-06-25T03:03:43.402Z,71.75
2023-06-25T03:06:10.463Z,71.58
2023-06-25T03:08:37.583Z,71.72
2023-06-25T03:11:04.750Z,71.46
2023-06-25T03:13:31.778Z,71.59
2023-06-25T03:15:58.711Z,72.05
2023-06-25T03:18:25.740Z,72.47
2023-06-25T03:20:52.834Z,72.97
2023-06-25T03:23:20.148Z,72.83
2023-06-25T03:25:49.627Z,73.00
2023-06-25T03:28:29.936Z,72.78
2023-06-25T03:30:57.004Z,72.74
2023-06-25T03:33:24.138Z,72.46
2023-06-25T03:35:51.300Z,72.65
2023-06-25T03:38:18.383Z,72.44
2023-06-25T03:40:46.104Z,72.18
2023-06-25T03:43:13.099Z,72.14
2023-06-25T03:45:40.550Z,72.13
2023-06-25T03:48:07.723Z,71.90
2023-06-25T03:50:34.851Z,71.94
2023-06-25T03:53:02.338Z,71.55
2023-06-25T03:55:31.687Z,71.14
2023-06-25T03:57:58.774Z,71.51
2023-06-25T04:00:27.631Z,71.26
2023-06-25T04:02:54.610Z,71.53
2023-06-25T04:05:21.548Z,71.72
2023-06-25T04:07:48.494Z,72.26
2023-06-25T04:10:15.972Z,72.18
2023-06-25T04:12:43.917Z,71.98
2023-06-25T04:15:12.582Z,71.86
2023-06-25T04:17:41.071Z,71.88
2023-06-25T04:20:09.513Z,71.27
2023-06-25T04:22:36.849Z,71.17
2023-06-25T04:25:04.022Z,70.89
2023-06-25T04:27:30.974Z,70.54
2023-06-25T04:29:58.413Z,70.55
2023-06-25T04:32:26.979Z,69.91
2023-06-25T04:34:53.993Z,69.99
2023-06-25T04:37:20.936Z,70.34
2023-06-25T04:39:48.014Z,70.24
2023-06-25T04:42:15.542Z,69.64
2023-06-25T04:44:42.519Z,69.47
2023-06-25T04:47:09.574Z,69.01
2023-06-25T04:49:36.677Z,69.12
2023-06-25T04:52:04.695Z,69.21
2023-06-25T04:54:31.860Z,68.98
2023-06-25T04:56:58.761Z,69.04
2023-06-25T04:59:25.620Z,69.04
2023-06-25T05:01:52.928Z,69.48
2023-06-25T05:04:19.907Z,69.74
2023-06-25T05:06:46.908Z,69.36
2023-06-25T05:09:14.061Z,69.09
2023-06-25T05:11:41.021Z,68.98
2023-06-25T05:14:07.981Z,68.94
2023-06-25T05:16:35.017Z,68.93
2023-06-25T05:19:01.931Z,68.68
2023-06-25T05:21:29.050Z,68.69
2023-06-25T05:24:01.037Z,68.43
2023-06-25T05:26:29.069Z,68.07
2023-06-25T05:28:56.458Z,67.96
2023-06-25T05:31:23.651Z,67.91
2023-06-25T05:33:50.900Z,67.73
2023-06-25T05:36:18.519Z,67.77
2023-06-25T05:38:45.418Z,67.65
2023-06-25T05:41:12.604Z,67.78
2023-06-25T05:43:39.993Z,67.93
2023-06-25T05:46:07.193Z,67.83
2023-06-25T05:48:34.122Z,68.06
2023-06-25T05:51:01.069Z,68.18
2023-06-25T05:53:28.222Z,68.03
2023-06-25T05:55:55.657Z,67.75
2023-06-25T05:58:23.394Z,67.81
2023-06-25T06:00:51.507Z,67.77
2023-06-25T06:03:19.551Z,67.95
2023-06-25T06:05:47.995Z,67.81
2023-06-25T06:08:14.985Z,67.75
2023-06-25T06:10:41.857Z,67.50
2023-06-25T06:13:08.832Z,66.82
2023-06-25T06:15:36.187Z,66.63
2023-06-25T06:18:03.355Z,66.71
2023-06-25T06:20:30.302Z,66.49
2023-06-25T06:22:59.191Z,65.94
2023-06-25T06:25:26.861Z,65.83
2023-06-25T06:27:56.279Z,64.93
2023-06-25T06:30:23.306Z,64.40
2023-06-25T06:32:50.608Z,63.27
2023-06-25T06:35:17.577Z,63.02
2023-06-25T06:37:44.636Z,62.76
2023-06-25T06:40:12.066Z,62.81
2023-06-25T06:42:39.095Z,62.81
2023-06-25T06:45:06.788Z,62.11
2023-06-25T06:47:34.182Z,61.55
2023-06-25T06:50:01.802Z,61.67
2023-06-25T06:52:29.383Z,61.47
2023-06-25T06:54:57.290Z,61.08
2023-06-25T06:57:24.612Z,60.67
2023-06-25T06:59:58.034Z,59.98
2023-06-25T07:02:25.182Z,59.99
2023-06-25T07:04:52.966Z,59.56
2023-06-25T07:07:20.203Z,59.61
2023-06-25T07:09:52.257Z,59.12
2023-06-25T07:12:19.652Z,59.42
2023-06-25T07:14:46.770Z,59.01
2023-06-25T07:17:13.932Z,59.14
2023-06-25T07:19:41.044Z,58.71
2023-06-25T07:22:08.277Z,58.58
2023-06-25T07:24:35.277Z,58.31
2023-06-25T07:27:02.547Z,57.55
2023-06-25T07:29:29.793Z,57.88
2023-06-25T07:31:56.938Z,57.70
2023-06-25T07:34:24.174Z,57.74
2023-06-25T07:36:51.129Z,57.59
2023-06-25T07:39:30.514Z,56.91
2023-06-25T07:41:58.433Z,56.42
2023-06-25T07:44:46.049Z,56.27
2023-06-25T07:47:12.603Z,56.24
2023-06-25T07:49:57.375Z,56.03
2023-06-25T07:52:24.273Z,55.87
2023-06-25T07:54:51.219Z,55.87
2023-06-25T07:57:18.161Z,55.97
2023-06-25T07:59:51.801Z,55.53
2023-06-25T08:02:22.322Z,55.73
2023-06-25T08:04:50.261Z,56.12
2023-06-25T08:07:18.377Z,55.95
2023-06-25T08:09:46.809Z,55.98
2023-06-25T08:12:16.101Z,56.10
2023-06-25T08:14:44.070Z,55.77
2023-06-25T08:17:11.041Z,55.53
2023-06-25T08:19:38.505Z,55.90
2023-06-25T08:22:05.750Z,55.29
2023-06-25T08:24:32.767Z,55.48
2023-06-25T08:26:59.773Z,55.65
2023-06-25T08:29:27.600Z,55.44
2023-06-25T08:31:55.563Z,55.79
2023-06-25T08:34:22.578Z,55.66
2023-06-25T08:36:49.435Z,55.35
2023-06-25T08:39:16.307Z,55.68
2023-06-25T08:41:43.499Z,55.27
2023-06-25T08:44:10.675Z,55.21
2023-06-25T08:46:38.131Z,55.11
2023-06-25T08:49:06.484Z,54.91
2023-06-25T08:51:33.541Z,55.07
2023-06-25T08:54:00.723Z,54.99
2023-06-25T08:56:27.682Z,55.02
2023-06-25T08:58:54.713Z,55.37
2023-06-25T09:01:22.448Z,55.61
2023-06-25T09:03:49.541Z,55.23
2023-06-25T09:06:17.476Z,54.97
2023-06-25T09:08:44.804Z,54.85
2023-06-25T09:11:12.301Z,54.84
2023-06-25T09:13:40.282Z,54.79
2023-06-25T09:16:11.511Z,55.19
2023-06-25T09:18:38.913Z,54.50
2023-06-25T09:21:08.003Z,54.43
2023-06-25T09:23:37.223Z,54.40
2023-06-25T09:26:06.409Z,54.43
2023-06-25T09:28:33.529Z,54.53
2023-06-25T09:31:01.898Z,54.55
2023-06-25T09:33:34.421Z,54.64
2023-06-25T09:36:07.984Z,54.99
2023-06-25T09:38:47.410Z,55.22
2023-06-25T09:41:16.693Z,55.38
2023-06-25T09:43:44.479Z,54.94
2023-06-25T09:46:12.532Z,55.14
2023-06-25T09:48:40.216Z,55.52
2023-06-25T09:51:08.396Z,55.41
2023-06-25T09:53:37.785Z,55.24
2023-06-25T09:56:06.532Z,55.39
2023-06-25T09:58:33.481Z,55.19
2023-06-25T10:01:00.487Z,55.00
2023-06-25T10:03:27.902Z,55.00
2023-06-25T10:05:55.072Z,55.28
2023-06-25T10:08:22.552Z,54.84
2023-06-25T10:11:05.391Z,54.53
2023-06-25T10:13:33.607Z,54.68
2023-06-25T10:16:02.838Z,54.72
2023-06-25T10:18:30.231Z,54.00
2023-06-25T10:20:58.659Z,53.74
2023-06-25T10:23:27.280Z,53.97
2023-06-25T10:26:00.581Z,53.59
2023-06-25T10:28:34.262Z,53.20
2023-06-25T10:31:15.569Z,53.58
2023-06-25T10:33:44.151Z,53.57
2023-06-25T10:36:13.486Z,53.33
2023-06-25T10:38:40.916Z,52.94
2023-06-25T10:41:08.170Z,52.38
2023-06-25T10:43:37.755Z,52.77
2023-06-25T10:46:05.580Z,52.97
2023-06-25T10:48:32.837Z,53.53
2023-06-25T10:51:00.069Z,54.00
2023-06-25T10:53:27.224Z,54.11
2023-06-25T10:55:54.933Z,53.67
2023-06-25T10:58:25.899Z,53.55
2023-06-25T11:00:57.514Z,54.07
2023-06-25T11:03:28.222Z,54.17
2023-06-25T11:05:58.458Z,53.92
2023-06-25T11:08:26.086Z,53.98
2023-06-25T11:10:53.782Z,53.50
2023-06-25T11:13:21.102Z,53.17
2023-06-25T11:15:49.330Z,52.91
2023-06-25T11:18:16.796Z,52.17
2023-06-25T11:20:45.040Z,51.99
2023-06-25T11:23:15.418Z,52.28
2023-06-25T11:25:42.791Z,51.66
2023-06-25T11:28:13.274Z,51.85
2023-06-25T11:30:41.043Z,51.29
2023-06-25T11:33:12.669Z,51.87
2023-06-25T11:35:40.418Z,52.03
2023-06-25T11:38:08.685Z,51.53
2023-06-25T11:40:38.313Z,50.38
2023-06-25T11:43:05.317Z,50.14
2023-06-25T11:45:45.294Z,50.01
2023-06-25T11:48:16.528Z,50.11
2023-06-25T11:50:47.894Z,49.80
2023-06-25T11:53:16.105Z,50.10
2023-06-25T11:55:43.501Z,50.54
2023-06-25T11:58:11.320Z,50.31
2023-06-25T12:00:40.816Z,50.31
2023-06-25T12:03:09.910Z,50.25
2023-06-25T12:05:37.648Z,50.32
2023-06-25T12:08:05.397Z,50.20
2023-06-25T12:10:32.790Z,49.54
2023-06-25T12:13:00.397Z,49.44
2023-06-25T12:15:27.404Z,49.18
2023-06-25T12:17:54.742Z,49.37
2023-06-25T12:20:21.994Z,49.89
2023-06-25T12:22:48.916Z,49.85
2023-06-25T12:25:15.879Z,50.48
2023-06-25T12:27:42.684Z,50.34
2023-06-25T12:30:09.949Z,51.20
2023-06-25T12:32:37.084Z,50.91
2023-06-25T12:35:04.364Z,51.79
2023-06-25T12:37:31.816Z,51.27
2023-06-25T12:40:01.209Z,51.47
2023-06-25T12:42:28.465Z,51.32
2023-06-25T12:44:55.304Z,51.12
2023-06-25T12:47:22.404Z,51.02
2023-06-25T12:49:49.662Z,50.75
2023-06-25T12:52:18.875Z,50.63
2023-06-25T12:54:46.208Z,51.04
2023-06-25T12:57:13.434Z,51.19
2023-06-25T12:59:40.443Z,51.22
2023-06-25T13:02:08.037Z,51.47
2023-06-25T13:04:35.802Z,51.56
2023-06-25T13:07:06.685Z,51.80
2023-06-25T13:09:34.228Z,51.73
2023-06-25T13:12:01.332Z,51.46
2023-06-25T13:14:28.333Z,51.85
2023-06-25T13:16:55.732Z,52.34
2023-06-25T13:19:22.790Z,52.69
2023-06-25T13:21:50.088Z,52.70
2023-06-25T13:24:17.208Z,52.95
2023-06-25T13:26:46.211Z,52.86
2023-06-25T13:29:13.356Z,53.20
2023-06-25T13:31:40.730Z,53.53
2023-06-25T13:34:07.912Z,53.45
2023-06-25T13:36:34.794Z,53.42
2023-06-25T13:39:01.851Z,53.49
2023-06-25T13:41:29.079Z,53.58
2023-06-25T13:43:56.404Z,53.75
2023-06-25T13:46:23.803Z,53.72
2023-06-25T13:48:50.882Z,53.39
2023-06-25T13:51:18.382Z,53.23
2023-06-25T13:53:45.726Z,53.44
2023-06-25T13:56:13.008Z,53.14
2023-06-25T13:58:40.217Z,53.39
2023-06-25T14:01:07.820Z,52.97
2023-06-25T14:03:35.407Z,52.69
2023-06-25T14:06:02.575Z,52.48
2023-06-25T14:08:29.596Z,52.73
2023-06-25T14:10:56.619Z,52.09
2023-06-25T14:13:25.758Z,52.29
2023-06-25T14:16:06.016Z,52.51
2023-06-25T14:18:38.104Z,52.43
2023-06-25T14:21:05.283Z,52.80
2023-06-25T14:23:32.229Z,52.78
2023-06-25T14:25:59.501Z,52.54
2023-06-25T14:28:30.068Z,52.78
2023-06-25T14:31:00.728Z,53.09
2023-06-25T14:33:32.212Z,52.61
2023-06-25T14:35:59.205Z,52.45
2023-06-25T14:38:26.292Z,52.67
2023-06-25T14:40:53.162Z,51.91
2023-06-25T14:43:20.221Z,51.48
2023-06-25T14:45:47.021Z,51.75
2023-06-25T14:48:14.082Z,51.50
2023-06-25T14:50:41.307Z,51.77
2023-06-25T14:53:08.487Z,51.94
2023-06-25T14:55:41.113Z,51.69
2023-06-25T14:58:08.646Z,52.39
2023-06-25T15:00:35.886Z,52.48
2023-06-25T15:03:03.559Z,52.58
2023-06-25T15:05:30.635Z,52.54
2023-06-25T15:07:57.479Z,51.58
2023-06-25T15:10:24.533Z,50.75
2023-06-25T15:12:51.388Z,50.17
2023-06-25T15:15:18.586Z,49.92
2023-06-25T15:17:47.664Z,50.51
2023-06-25T15:20:14.639Z,50.60
2023-06-25T15:22:41.713Z,50.58
2023-06-25T15:25:09.018Z,50.46
2023-06-25T15:27:35.973Z,50.10
2023-06-25T15:30:03.776Z,49.97
2023-06-25T15:32:31.050Z,50.41
2023-06-25T15:34:58.247Z,50.81
2023-06-25T15:37:27.655Z,51.58
2023-06-25T15:39:54.642Z,51.12
2023-06-25T15:42:21.486Z,50.69
2023-06-25T15:44:48.324Z,50.34
2023-06-25T15:47:15.160Z,49.74
2023-06-25T15:49:43.426Z,50.08
2023-06-25T15:52:10.306Z,48.86
2023-06-25T15:54:37.492Z,48.61
2023-06-25T15:57:04.414Z,48.19
2023-06-25T15:59:31.943Z,47.86
2023-06-25T16:01:58.932Z,47.85
2023-06-25T16:04:26.128Z,48.37
2023-06-25T16:06:54.324Z,47.83
2023-06-25T16:09:21.153Z,48.03
2023-06-25T16:11:52.338Z,47.45
2023-06-25T16:14:19.219Z,47.11
2023-06-25T16:16:46.071Z,46.75
2023-06-25T16:21:42.739Z,47.66
2023-06-25T16:24:09.628Z,47.56
2023-06-25T16:26:36.462Z,47.21
2023-06-25T16:29:03.606Z,47.28
2023-06-25T16:31:30.495Z,47.44
2023-06-25T16:33:57.421Z,48.24
2023-06-25T16:36:24.410Z,47.93
2023-06-25T16:38:51.218Z,47.64
2023-06-25T16:41:18.046Z,46.77
2023-06-25T16:43:44.923Z,46.61
2023-06-25T16:46:11.793Z,46.22
2023-06-25T16:48:38.656Z,46.29
2023-06-25T16:51:05.581Z,46.44
2023-06-25T16:53:32.462Z,46.35
2023-06-25T16:55:59.585Z,45.91
2023-06-25T16:58:27.231Z,46.11
2023-06-25T17:00:54.346Z,46.03
2023-06-25T17:03:21.391Z,46.60
2023-06-25T17:05:48.332Z,46.24
2023-06-25T17:08:15.218Z,46.03
2023-06-25T17:10:42.398Z,47.73
2023-06-25T17:13:09.446Z,48.65
2023-06-25T17:15:36.512Z,48.79
2023-06-25T17:18:03.706Z,49.08
2023-06-25T17:20:30.608Z,49.56
2023-06-25T17:22:57.545Z,49.94
2023-06-25T17:25:24.401Z,50.51
2023-06-25T17:27:52.360Z,50.19
2023-06-25T17:30:19.254Z,49.75
2023-06-25T17:32:46.111Z,50.15
2023-06-25T17:35:13.027Z,50.41
2023-06-25T17:37:39.827Z,49.91
2023-06-25T17:40:07.358Z,50.57
2023-06-25T17:42:34.204Z,49.94
2023-06-25T17:45:01.139Z,50.61
2023-06-25T17:47:29.524Z,50.50
2023-06-25T17:49:56.432Z,51.19
2023-06-25T17:52:23.426Z,51.38
2023-06-25T17:54:50.295Z,51.17
2023-06-25T17:57:17.121Z,51.20
2023-06-25T17:59:44.050Z,51.92
2023-06-25T18:02:10.906Z,51.36
2023-06-25T18:04:40.840Z,51.78
2023-06-25T18:07:09.854Z,51.70
2023-06-25T18:09:38.006Z,52.39
2023-06-25T18:12:05.662Z,52.06
2023-06-25T18:14:32.757Z,51.91
2023-06-25T18:16:59.641Z,51.73
2023-06-25T18:19:26.492Z,51.95
2023-06-25T18:21:53.378Z,52.64
2023-06-25T18:24:20.289Z,52.88
2023-06-25T18:26:47.417Z,52.88
2023-06-25T18:29:14.252Z,53.02
2023-06-25T18:31:42.773Z,53.32
2023-06-25T18:34:15.366Z,53.43
2023-06-25T18:36:44.751Z,53.70
2023-06-25T18:39:11.729Z,53.79
2023-06-25T18:41:38.683Z,54.12
2023-06-25T18:44:05.749Z,54.53
2023-06-25T18:46:32.651Z,55.02
2023-06-25T18:48:59.565Z,55.12
2023-06-25T18:51:27.640Z,55.21
2023-06-25T18:53:54.464Z,55.49
2023-06-25T18:56:21.297Z,55.38
2023-06-25T18:58:48.105Z,55.32
2023-06-25T19:01:14.977Z,55.89
2023-06-25T19:03:42.091Z,56.10
2023-06-25T19:06:09.126Z,56.46
2023-06-25T19:08:36.027Z,56.83
2023-06-25T19:11:02.847Z,57.20
2023-06-25T19:13:29.622Z,57.48
2023-06-25T19:16:04.071Z,57.43
2023-06-25T19:18:31.176Z,57.83
2023-06-25T19:20:58.094Z,57.72
2023-06-25T19:23:29.970Z,58.10
2023-06-25T19:26:02.205Z,58.06
2023-06-25T19:28:29.063Z,58.55
2023-06-25T19:30:56.152Z,58.79
2023-06-25T19:33:23.204Z,59.58
2023-06-25T19:35:50.153Z,59.76
2023-06-25T19:38:17.211Z,59.69
2023-06-25T19:40:44.589Z,60.30
2023-06-25T19:43:12.639Z,60.47
2023-06-25T19:45:39.970Z,60.19
2023-06-25T19:48:18.902Z,60.89
2023-06-25T19:50:46.104Z,60.93
2023-06-25T19:53:13.341Z,61.32
2023-06-25T19:55:40.894Z,61.63
2023-06-25T19:58:08.197Z,61.54
2023-06-25T20:00:35.378Z,62.24
2023-06-25T20:03:02.522Z,62.06
2023-06-25T20:05:29.662Z,62.59
2023-06-25T20:07:56.720Z,62.85
2023-06-25T20:10:23.940Z,62.87
2023-06-25T20:12:51.155Z,62.97
2023-06-25T20:15:18.907Z,63.07
2023-06-25T20:17:48.566Z,63.45
2023-06-25T20:20:15.800Z,63.93
2023-06-25T20:22:42.805Z,64.23
2023-06-25T20:25:13.870Z,64.67
2023-06-25T20:27:40.855Z,64.69
2023-06-25T20:30:08.612Z,64.75
2023-06-25T20:32:35.775Z,65.01
2023-06-25T20:35:04.032Z,65.33
2023-06-25T20:37:31.162Z,64.92
2023-06-25T20:39:58.227Z,64.91
2023-06-25T20:42:26.459Z,65.43
2023-06-25T20:44:53.762Z,66.02
2023-06-25T20:47:21.237Z,66.08
2023-06-25T20:49:48.446Z,66.24
2023-06-25T20:52:16.125Z,66.77
2023-06-25T20:54:43.325Z,67.37
2023-06-25T20:57:14.774Z,67.45
2023-06-25T20:59:41.845Z,67.62
2023-06-25T21:02:12.733Z,67.69
2023-06-25T21:04:40.164Z,68.10
2023-06-25T21:07:07.400Z,68.09
2023-06-25T21:09:34.864Z,68.11
2023-06-25T21:12:02.118Z,68.21
2023-06-25T21:14:29.263Z,68.29
2023-06-25T21:16:56.380Z,68.19
2023-06-25T21:19:23.458Z,68.39
2023-06-25T21:21:50.403Z,69.24
2023-06-25T21:24:17.856Z,69.32
2023-06-25T21:26:44.957Z,69.47
2023-06-25T21:29:12.154Z,69.92
2023-06-25T21:31:39.190Z,69.53
2023-06-25T21:34:06.694Z,69.81
2023-06-25T21:36:34.011Z,70.09
2023-06-25T21:39:05.154Z,70.70
2023-06-25T21:41:32.232Z,70.53
2023-06-25T21:43:59.594Z,70.89
2023-06-25T21:46:26.868Z,71.24
2023-06-25T21:48:54.049Z,71.14
2023-06-25T21:51:20.996Z,70.94
2023-06-25T21:53:47.959Z,71.00
2023-06-25T21:56:15.023Z,71.30
2023-06-25T21:58:42.124Z,71.23
2023-06-25T22:01:09.181Z,71.77
2023-06-25T22:03:36.238Z,71.92
2023-06-25T22:06:03.431Z,71.83
2023-06-25T22:08:31.733Z,72.05
2023-06-25T22:10:58.662Z,71.96
2023-06-25T22:13:25.575Z,72.25
2023-06-25T22:15:52.557Z,72.13
2023-06-25T22:18:19.506Z,72.30
2023-06-25T22:20:46.785Z,72.59
2023-06-25T22:23:13.914Z,72.44
2023-06-25T22:25:40.773Z,72.47
2023-06-25T22:28:07.744Z,72.64
2023-06-25T22:30:34.759Z,72.76
2023-06-25T22:33:01.746Z,72.32
2023-06-25T22:35:28.719Z,72.29
2023-06-25T22:37:55.929Z,72.43
2023-06-25T22:40:22.917Z,72.67
2023-06-25T22:42:49.932Z,72.50
2023-06-25T22:45:17.035Z,72.80
2023-06-25T22:47:43.984Z,73.16
2023-06-25T22:50:11.696Z,73.01
2023-06-25T22:52:40.449Z,73.19
2023-06-25T22:55:08.635Z,73.29
2023-06-25T22:57:35.818Z,73.70
2023-06-25T23:00:02.795Z,73.64
2023-06-25T23:02:29.866Z,73.81
2023-06-25T23:04:57.613Z,73.91
2023-06-25T23:07:24.867Z,74.40
2023-06-25T23:09:51.956Z,74.46
2023-06-25T23:12:18.897Z,74.83
2023-06-25T23:14:45.807Z,74.75
2023-06-25T23:17:13.174Z,74.80
2023-06-25T23:19:40.631Z,74.92
2023-06-25T23:22:07.791Z,74.97
2023-06-25T23:24:40.749Z,75.19
2023-06-25T23:27:08.435Z,75.38
2023-06-25T23:29:36.536Z,75.03
2023-06-25T23:32:05.195Z,75.41
2023-06-25T23:34:32.785Z,75.52
2023-06-25T23:37:00.917Z,75.60
2023-06-25T23:39:28.695Z,75.42
2023-06-25T23:41:56.021Z,75.58
2023-06-25T23:44:22.940Z,75.09
2023-06-25T23:46:49.920Z,75.55
2023-06-25T23:49:17.149Z,75.08
2023-06-25T23:51:44.754Z,75.15
2023-06-25T23:54:11.699Z,75.04
2023-06-25T23:56:39.413Z,74.87
2023-06-25T23:59:06.475Z,74.88
